sensor_id;sensor_type;location;lat;lon;timestamp;P1;durP1;ratioP1;P2;durP2;ratioP2
1366;SDS011;16877;48.810;9.282;2022-07-23T00:01:18;6.50;;;5.57;;
1366;SDS011;16877;48.810;9.282;2022-07-23T00:03:45;6.60;;;6.10;;
1366;SDS011;16877;48.810;9.282;2022-07-23T00:06:11;7.00;;;6.37;;
1366;SDS011;16877;48.810;9.282;2022-07-23T00:08:38;6.40;;;5.80;;
1366;SDS011;16877;48.810;9.282;2022-07-23T00:11:05;6.60;;;5.90;;
1366;SDS011;16877;48.810;9.282;2022-07-23T00:13:32;7.40;;;5.97;;
1366;SDS011;16877;48.810;9.282;2022-07-23T00:16:00;6.87;;;6.17;;
1366;SDS011;16877;48.810;9.282;2022-07-23T00:18:26;11.23;;;5.70;;
1366;SDS011;16877;48.810;9.282;2022-07-23T00:20:53;5.80;;;5.23;;
1366;SDS011;16877;48.810;9.282;2022-07-23T00:23:20;5.70;;;5.20;;
1366;SDS011;16877;48.810;9.282;2022-07-23T00:25:46;5.40;;;4.90;;
1366;SDS011;16877;48.810;9.282;2022-07-23T00:28:13;5.70;;;5.20;;
1366;SDS011;16877;48.810;9.282;2022-07-23T00:30:40;5.43;;;4.93;;
1366;SDS011;16877;48.810;9.282;2022-07-23T00:33:08;5.13;;;4.37;;
1366;SDS011;16877;48.810;9.282;2022-07-23T00:35:35;5.50;;;5.00;;
1366;SDS011;16877;48.810;9.282;2022-07-23T00:38:05;5.30;;;4.33;;
1366;SDS011;16877;48.810;9.282;2022-07-23T00:40:34;5.23;;;4.83;;
1366;SDS011;16877;48.810;9.282;2022-07-23T00:43:02;5.13;;;4.30;;
1366;SDS011;16877;48.810;9.282;2022-07-23T00:45:29;3.80;;;3.50;;
1366;SDS011;16877;48.810;9.282;2022-07-23T00:47:56;5.63;;;4.63;;
1366;SDS011;16877;48.810;9.282;2022-07-23T00:50:24;4.77;;;4.37;;
1366;SDS011;16877;48.810;9.282;2022-07-23T00:52:51;5.80;;;4.10;;
1366;SDS011;16877;48.810;9.282;2022-07-23T00:55:18;6.43;;;5.10;;
1366;SDS011;16877;48.810;9.282;2022-07-23T00:57:45;5.07;;;4.30;;
1366;SDS011;16877;48.810;9.282;2022-07-23T01:00:13;4.73;;;4.33;;
1366;SDS011;16877;48.810;9.282;2022-07-23T01:02:41;4.20;;;3.80;;
1366;SDS011;16877;48.810;9.282;2022-07-23T01:05:08;4.80;;;4.40;;
1366;SDS011;16877;48.810;9.282;2022-07-23T01:07:36;5.27;;;4.33;;
1366;SDS011;16877;48.810;9.282;2022-07-23T01:10:03;4.20;;;3.70;;
1366;SDS011;16877;48.810;9.282;2022-07-23T01:12:51;4.37;;;3.97;;
1366;SDS011;16877;48.810;9.282;2022-07-23T01:15:17;4.47;;;4.07;;
1366;SDS011;16877;48.810;9.282;2022-07-23T01:17:44;5.63;;;4.30;;
1366;SDS011;16877;48.810;9.282;2022-07-23T01:20:10;4.63;;;4.17;;
1366;SDS011;16877;48.810;9.282;2022-07-23T01:22:38;5.23;;;4.10;;
1366;SDS011;16877;48.810;9.282;2022-07-23T01:25:06;5.07;;;4.57;;
1366;SDS011;16877;48.810;9.282;2022-07-23T01:27:34;4.10;;;3.70;;
1366;SDS011;16877;48.810;9.282;2022-07-23T01:30:02;4.80;;;4.30;;
1366;SDS011;16877;48.810;9.282;2022-07-23T01:32:30;4.97;;;4.57;;
1366;SDS011;16877;48.810;9.282;2022-07-23T01:34:56;4.47;;;4.07;;
1366;SDS011;16877;48.810;9.282;2022-07-23T01:37:23;4.57;;;4.00;;
1366;SDS011;16877;48.810;9.282;2022-07-23T01:39:51;4.70;;;4.30;;
1366;SDS011;16877;48.810;9.282;2022-07-23T01:42:18;4.10;;;3.70;;
1366;SDS011;16877;48.810;9.282;2022-07-23T01:44:44;4.70;;;3.90;;
1366;SDS011;16877;48.810;9.282;2022-07-23T01:47:11;4.50;;;4.00;;
1366;SDS011;16877;48.810;9.282;2022-07-23T01:49:38;4.33;;;3.90;;
1366;SDS011;16877;48.810;9.282;2022-07-23T01:52:05;4.33;;;3.93;;
1366;SDS011;16877;48.810;9.282;2022-07-23T01:54:35;4.90;;;4.40;;
1366;SDS011;16877;48.810;9.282;2022-07-23T01:57:04;4.63;;;4.23;;
1366;SDS011;16877;48.810;9.282;2022-07-23T01:59:31;4.70;;;4.30;;
1366;SDS011;16877;48.810;9.282;2022-07-23T02:01:58;5.80;;;4.10;;
1366;SDS011;16877;48.810;9.282;2022-07-23T02:04:25;4.10;;;3.70;;
1366;SDS011;16877;48.810;9.282;2022-07-23T02:06:52;5.40;;;3.83;;
1366;SDS011;16877;48.810;9.282;2022-07-23T02:09:19;4.80;;;4.37;;
1366;SDS011;16877;48.810;9.282;2022-07-23T02:11:46;8.73;;;4.67;;
1366;SDS011;16877;48.810;9.282;2022-07-23T02:14:14;4.53;;;4.13;;
1366;SDS011;16877;48.810;9.282;2022-07-23T02:16:41;5.20;;;4.07;;
1366;SDS011;16877;48.810;9.282;2022-07-23T02:19:07;4.80;;;4.30;;
1366;SDS011;16877;48.810;9.282;2022-07-23T02:21:34;5.00;;;4.10;;
1366;SDS011;16877;48.810;9.282;2022-07-23T02:24:01;5.30;;;4.43;;
1366;SDS011;16877;48.810;9.282;2022-07-23T02:26:27;3.87;;;3.57;;
1366;SDS011;16877;48.810;9.282;2022-07-23T02:28:54;4.17;;;3.53;;
1366;SDS011;16877;48.810;9.282;2022-07-23T02:31:22;5.10;;;4.70;;
1366;SDS011;16877;48.810;9.282;2022-07-23T02:33:49;5.57;;;4.30;;
1366;SDS011;16877;48.810;9.282;2022-07-23T02:36:15;4.80;;;4.40;;
1366;SDS011;16877;48.810;9.282;2022-07-23T02:38:42;5.10;;;4.60;;
1366;SDS011;16877;48.810;9.282;2022-07-23T02:41:09;5.17;;;4.23;;
1366;SDS011;16877;48.810;9.282;2022-07-23T02:43:35;4.77;;;4.03;;
1366;SDS011;16877;48.810;9.282;2022-07-23T02:46:02;4.80;;;4.40;;
1366;SDS011;16877;48.810;9.282;2022-07-23T02:48:31;6.07;;;5.33;;
1366;SDS011;16877;48.810;9.282;2022-07-23T02:50:57;5.13;;;4.63;;
1366;SDS011;16877;48.810;9.282;2022-07-23T02:53:24;5.40;;;4.90;;
1366;SDS011;16877;48.810;9.282;2022-07-23T02:55:51;4.80;;;4.37;;
1366;SDS011;16877;48.810;9.282;2022-07-23T02:58:18;5.30;;;4.70;;
1366;SDS011;16877;48.810;9.282;2022-07-23T03:00:44;5.07;;;4.43;;
1366;SDS011;16877;48.810;9.282;2022-07-23T03:03:11;4.30;;;3.90;;
1366;SDS011;16877;48.810;9.282;2022-07-23T03:05:39;4.87;;;4.47;;
1366;SDS011;16877;48.810;9.282;2022-07-23T03:08:06;5.20;;;4.60;;
1366;SDS011;16877;48.810;9.282;2022-07-23T03:10:33;5.23;;;4.73;;
1366;SDS011;16877;48.810;9.282;2022-07-23T03:12:59;5.40;;;4.50;;
1366;SDS011;16877;48.810;9.282;2022-07-23T03:15:26;5.20;;;4.20;;
1366;SDS011;16877;48.810;9.282;2022-07-23T03:17:53;5.23;;;4.13;;
1366;SDS011;16877;48.810;9.282;2022-07-23T03:20:19;4.90;;;4.37;;
1366;SDS011;16877;48.810;9.282;2022-07-23T03:22:47;4.80;;;4.20;;
1366;SDS011;16877;48.810;9.282;2022-07-23T03:25:14;4.73;;;4.30;;
1366;SDS011;16877;48.810;9.282;2022-07-23T03:27:40;4.70;;;4.30;;
1366;SDS011;16877;48.810;9.282;2022-07-23T03:30:07;5.23;;;4.77;;
1366;SDS011;16877;48.810;9.282;2022-07-23T03:32:35;5.77;;;5.17;;
1366;SDS011;16877;48.810;9.282;2022-07-23T03:35:02;4.40;;;3.80;;
1366;SDS011;16877;48.810;9.282;2022-07-23T03:37:28;5.13;;;4.73;;
1366;SDS011;16877;48.810;9.282;2022-07-23T03:39:56;4.77;;;4.37;;
1366;SDS011;16877;48.810;9.282;2022-07-23T03:42:23;5.53;;;5.03;;
1366;SDS011;16877;48.810;9.282;2022-07-23T03:44:50;4.80;;;4.23;;
1366;SDS011;16877;48.810;9.282;2022-07-23T03:47:16;5.50;;;5.00;;
1366;SDS011;16877;48.810;9.282;2022-07-23T03:49:46;5.30;;;4.80;;
1366;SDS011;16877;48.810;9.282;2022-07-23T03:52:13;5.50;;;5.00;;
1366;SDS011;16877;48.810;9.282;2022-07-23T03:54:40;4.80;;;4.40;;
1366;SDS011;16877;48.810;9.282;2022-07-23T03:57:08;5.40;;;4.80;;
1366;SDS011;16877;48.810;9.282;2022-07-23T03:59:35;5.57;;;5.07;;
1366;SDS011;16877;48.810;9.282;2022-07-23T04:02:01;5.87;;;4.97;;
1366;SDS011;16877;48.810;9.282;2022-07-23T04:04:28;5.10;;;4.67;;
1366;SDS011;16877;48.810;9.282;2022-07-23T04:06:55;4.60;;;4.20;;
1366;SDS011;16877;48.810;9.282;2022-07-23T04:09:21;5.10;;;4.67;;
1366;SDS011;16877;48.810;9.282;2022-07-23T04:11:48;5.77;;;5.30;;
1366;SDS011;16877;48.810;9.282;2022-07-23T04:14:16;5.03;;;4.53;;
1366;SDS011;16877;48.810;9.282;2022-07-23T04:16:43;6.73;;;6.03;;
1366;SDS011;16877;48.810;9.282;2022-07-23T04:19:09;4.67;;;4.27;;
1366;SDS011;16877;48.810;9.282;2022-07-23T04:21:36;6.20;;;5.60;;
1366;SDS011;16877;48.810;9.282;2022-07-23T04:24:03;5.87;;;5.37;;
1366;SDS011;16877;48.810;9.282;2022-07-23T04:26:30;6.23;;;5.63;;
1366;SDS011;16877;48.810;9.282;2022-07-23T04:28:57;5.40;;;4.90;;
1366;SDS011;16877;48.810;9.282;2022-07-23T04:31:25;6.07;;;5.17;;
1366;SDS011;16877;48.810;9.282;2022-07-23T04:33:52;6.70;;;6.10;;
1366;SDS011;16877;48.810;9.282;2022-07-23T04:36:18;6.57;;;6.07;;
1366;SDS011;16877;48.810;9.282;2022-07-23T04:38:45;6.33;;;5.37;;
1366;SDS011;16877;48.810;9.282;2022-07-23T04:41:12;5.70;;;5.20;;
1366;SDS011;16877;48.810;9.282;2022-07-23T04:43:38;6.00;;;5.40;;
1366;SDS011;16877;48.810;9.282;2022-07-23T04:46:05;5.83;;;5.23;;
1366;SDS011;16877;48.810;9.282;2022-07-23T04:48:33;6.10;;;5.60;;
1366;SDS011;16877;48.810;9.282;2022-07-23T04:51:00;6.50;;;5.90;;
1366;SDS011;16877;48.810;9.282;2022-07-23T04:53:26;6.53;;;5.77;;
1366;SDS011;16877;48.810;9.282;2022-07-23T04:55:53;5.90;;;5.40;;
1366;SDS011;16877;48.810;9.282;2022-07-23T04:58:20;5.50;;;5.00;;
1366;SDS011;16877;48.810;9.282;2022-07-23T05:00:47;5.67;;;5.10;;
1366;SDS011;16877;48.810;9.282;2022-07-23T05:03:14;6.50;;;5.43;;
1366;SDS011;16877;48.810;9.282;2022-07-23T05:05:42;8.57;;;5.63;;
1366;SDS011;16877;48.810;9.282;2022-07-23T05:08:09;6.20;;;5.60;;
1366;SDS011;16877;48.810;9.282;2022-07-23T05:10:35;5.77;;;5.27;;
1366;SDS011;16877;48.810;9.282;2022-07-23T05:13:02;5.53;;;5.03;;
1366;SDS011;16877;48.810;9.282;2022-07-23T05:15:29;6.10;;;5.57;;
1366;SDS011;16877;48.810;9.282;2022-07-23T05:17:56;8.20;;;5.40;;
1366;SDS011;16877;48.810;9.282;2022-07-23T05:20:22;5.53;;;4.67;;
1366;SDS011;16877;48.810;9.282;2022-07-23T05:22:50;5.90;;;5.20;;
1366;SDS011;16877;48.810;9.282;2022-07-23T05:25:17;5.70;;;5.20;;
1366;SDS011;16877;48.810;9.282;2022-07-23T05:27:44;5.60;;;5.10;;
1366;SDS011;16877;48.810;9.282;2022-07-23T05:30:11;5.83;;;5.30;;
1366;SDS011;16877;48.810;9.282;2022-07-23T05:32:38;5.70;;;5.20;;
1366;SDS011;16877;48.810;9.282;2022-07-23T05:35:05;5.47;;;4.97;;
1366;SDS011;16877;48.810;9.282;2022-07-23T05:37:32;7.10;;;5.10;;
1366;SDS011;16877;48.810;9.282;2022-07-23T05:40:01;7.40;;;5.77;;
1366;SDS011;16877;48.810;9.282;2022-07-23T05:42:29;6.10;;;4.87;;
1366;SDS011;16877;48.810;9.282;2022-07-23T05:44:55;6.50;;;5.90;;
1366;SDS011;16877;48.810;9.282;2022-07-23T05:47:22;5.47;;;4.87;;
1366;SDS011;16877;48.810;9.282;2022-07-23T05:49:49;6.23;;;5.73;;
1366;SDS011;16877;48.810;9.282;2022-07-23T05:52:15;7.00;;;6.40;;
1366;SDS011;16877;48.810;9.282;2022-07-23T05:54:42;5.90;;;5.30;;
1366;SDS011;16877;48.810;9.282;2022-07-23T05:57:10;5.87;;;5.30;;
1366;SDS011;16877;48.810;9.282;2022-07-23T05:59:37;6.00;;;5.50;;
1366;SDS011;16877;48.810;9.282;2022-07-23T06:02:03;6.03;;;5.43;;
1366;SDS011;16877;48.810;9.282;2022-07-23T06:04:30;5.63;;;4.90;;
1366;SDS011;16877;48.810;9.282;2022-07-23T06:06:56;5.83;;;5.23;;
1366;SDS011;16877;48.810;9.282;2022-07-23T06:09:23;7.07;;;6.43;;
1366;SDS011;16877;48.810;9.282;2022-07-23T06:11:50;6.83;;;6.20;;
1366;SDS011;16877;48.810;9.282;2022-07-23T06:14:18;5.90;;;5.40;;
1366;SDS011;16877;48.810;9.282;2022-07-23T06:16:44;6.20;;;5.60;;
1366;SDS011;16877;48.810;9.282;2022-07-23T06:19:11;6.67;;;5.77;;
1366;SDS011;16877;48.810;9.282;2022-07-23T06:21:38;5.80;;;5.30;;
1366;SDS011;16877;48.810;9.282;2022-07-23T06:24:04;7.00;;;6.30;;
1366;SDS011;16877;48.810;9.282;2022-07-23T06:26:32;6.10;;;5.50;;
1366;SDS011;16877;48.810;9.282;2022-07-23T06:28:58;6.97;;;6.27;;
1366;SDS011;16877;48.810;9.282;2022-07-23T06:31:26;6.93;;;6.33;;
1366;SDS011;16877;48.810;9.282;2022-07-23T06:33:53;5.77;;;5.27;;
1366;SDS011;16877;48.810;9.282;2022-07-23T06:36:20;5.33;;;4.83;;
1366;SDS011;16877;48.810;9.282;2022-07-23T06:38:47;5.53;;;5.03;;
1366;SDS011;16877;48.810;9.282;2022-07-23T06:41:14;5.93;;;5.43;;
1366;SDS011;16877;48.810;9.282;2022-07-23T06:43:40;6.53;;;5.93;;
1366;SDS011;16877;48.810;9.282;2022-07-23T06:46:07;5.87;;;5.37;;
1366;SDS011;16877;48.810;9.282;2022-07-23T06:48:35;5.53;;;5.00;;
1366;SDS011;16877;48.810;9.282;2022-07-23T06:51:02;5.63;;;5.13;;
1366;SDS011;16877;48.810;9.282;2022-07-23T06:53:28;5.27;;;4.77;;
1366;SDS011;16877;48.810;9.282;2022-07-23T06:55:55;6.93;;;6.23;;
1366;SDS011;16877;48.810;9.282;2022-07-23T06:58:22;6.10;;;5.50;;
1366;SDS011;16877;48.810;9.282;2022-07-23T07:00:48;6.80;;;6.10;;
1366;SDS011;16877;48.810;9.282;2022-07-23T07:03:16;6.70;;;6.10;;
1366;SDS011;16877;48.810;9.282;2022-07-23T07:05:45;7.00;;;6.30;;
1366;SDS011;16877;48.810;9.282;2022-07-23T07:08:12;6.60;;;6.00;;
1366;SDS011;16877;48.810;9.282;2022-07-23T07:10:38;8.03;;;7.13;;
1366;SDS011;16877;48.810;9.282;2022-07-23T07:13:05;6.50;;;5.90;;
1366;SDS011;16877;48.810;9.282;2022-07-23T07:15:32;6.67;;;6.07;;
1366;SDS011;16877;48.810;9.282;2022-07-23T07:17:58;7.53;;;6.83;;
1366;SDS011;16877;48.810;9.282;2022-07-23T07:20:25;6.87;;;6.17;;
1366;SDS011;16877;48.810;9.282;2022-07-23T07:22:53;7.43;;;6.73;;
1366;SDS011;16877;48.810;9.282;2022-07-23T07:25:20;7.60;;;6.90;;
1366;SDS011;16877;48.810;9.282;2022-07-23T07:27:47;7.10;;;6.50;;
1366;SDS011;16877;48.810;9.282;2022-07-23T07:30:13;6.27;;;5.67;;
1366;SDS011;16877;48.810;9.282;2022-07-23T07:32:40;5.83;;;5.33;;
1366;SDS011;16877;48.810;9.282;2022-07-23T07:35:07;6.33;;;5.80;;
1366;SDS011;16877;48.810;9.282;2022-07-23T07:37:34;6.30;;;5.70;;
1366;SDS011;16877;48.810;9.282;2022-07-23T07:40:02;6.70;;;6.10;;
1366;SDS011;16877;48.810;9.282;2022-07-23T07:42:29;6.33;;;5.83;;
1366;SDS011;16877;48.810;9.282;2022-07-23T07:44:57;5.67;;;5.17;;
1366;SDS011;16877;48.810;9.282;2022-07-23T07:47:24;6.63;;;5.63;;
1366;SDS011;16877;48.810;9.282;2022-07-23T07:49:50;6.77;;;6.17;;
1366;SDS011;16877;48.810;9.282;2022-07-23T07:52:17;6.70;;;6.00;;
1366;SDS011;16877;48.810;9.282;2022-07-23T07:54:44;6.10;;;5.50;;
1366;SDS011;16877;48.810;9.282;2022-07-23T07:57:12;6.23;;;5.63;;
1366;SDS011;16877;48.810;9.282;2022-07-23T07:59:38;8.03;;;6.20;;
1366;SDS011;16877;48.810;9.282;2022-07-23T08:02:05;6.93;;;6.23;;
1366;SDS011;16877;48.810;9.282;2022-07-23T08:04:32;5.83;;;5.33;;
1366;SDS011;16877;48.810;9.282;2022-07-23T08:06:59;6.50;;;5.90;;
1366;SDS011;16877;48.810;9.282;2022-07-23T08:09:26;6.93;;;6.13;;
1366;SDS011;16877;48.810;9.282;2022-07-23T08:11:52;6.10;;;5.50;;
1366;SDS011;16877;48.810;9.282;2022-07-23T08:14:20;6.77;;;6.17;;
1366;SDS011;16877;48.810;9.282;2022-07-23T08:16:47;5.93;;;5.43;;
1366;SDS011;16877;48.810;9.282;2022-07-23T08:19:14;6.03;;;5.50;;
1366;SDS011;16877;48.810;9.282;2022-07-23T08:21:40;7.60;;;6.40;;
1366;SDS011;16877;48.810;9.282;2022-07-23T08:24:07;6.70;;;6.00;;
1366;SDS011;16877;48.810;9.282;2022-07-23T08:26:34;6.10;;;5.60;;
1366;SDS011;16877;48.810;9.282;2022-07-23T08:29:00;5.90;;;5.40;;
1366;SDS011;16877;48.810;9.282;2022-07-23T08:31:28;5.77;;;5.27;;
1366;SDS011;16877;48.810;9.282;2022-07-23T08:33:55;7.23;;;5.23;;
1366;SDS011;16877;48.810;9.282;2022-07-23T08:36:22;7.83;;;5.60;;
1366;SDS011;16877;48.810;9.282;2022-07-23T08:38:49;5.93;;;5.37;;
1366;SDS011;16877;48.810;9.282;2022-07-23T08:41:15;6.37;;;5.73;;
1366;SDS011;16877;48.810;9.282;2022-07-23T08:43:42;8.37;;;5.97;;
1366;SDS011;16877;48.810;9.282;2022-07-23T08:46:10;7.40;;;5.47;;
1366;SDS011;16877;48.810;9.282;2022-07-23T08:48:40;5.93;;;5.33;;
1366;SDS011;16877;48.810;9.282;2022-07-23T08:51:07;6.60;;;5.83;;
1366;SDS011;16877;48.810;9.282;2022-07-23T08:53:35;6.53;;;5.90;;
1366;SDS011;16877;48.810;9.282;2022-07-23T08:56:04;6.17;;;5.67;;
1366;SDS011;16877;48.810;9.282;2022-07-23T08:58:31;6.77;;;5.47;;
1366;SDS011;16877;48.810;9.282;2022-07-23T09:00:58;6.80;;;6.20;;
1366;SDS011;16877;48.810;9.282;2022-07-23T09:03:26;7.20;;;6.60;;
1366;SDS011;16877;48.810;9.282;2022-07-23T09:05:56;6.90;;;5.73;;
1366;SDS011;16877;48.810;9.282;2022-07-23T09:08:26;6.10;;;5.60;;
1366;SDS011;16877;48.810;9.282;2022-07-23T09:11:02;7.93;;;7.23;;
1366;SDS011;16877;48.810;9.282;2022-07-23T09:13:31;6.57;;;5.97;;
1366;SDS011;16877;48.810;9.282;2022-07-23T09:16:05;6.03;;;5.47;;
1366;SDS011;16877;48.810;9.282;2022-07-23T09:18:35;5.83;;;5.33;;
1366;SDS011;16877;48.810;9.282;2022-07-23T09:21:12;6.70;;;5.87;;
1366;SDS011;16877;48.810;9.282;2022-07-23T09:23:44;7.20;;;6.27;;
1366;SDS011;16877;48.810;9.282;2022-07-23T09:26:19;8.10;;;6.53;;
1366;SDS011;16877;48.810;9.282;2022-07-23T09:28:57;6.20;;;5.60;;
1366;SDS011;16877;48.810;9.282;2022-07-23T09:31:30;6.50;;;5.90;;
1366;SDS011;16877;48.810;9.282;2022-07-23T09:34:06;6.70;;;6.10;;
1366;SDS011;16877;48.810;9.282;2022-07-23T09:36:35;9.30;;;6.47;;
1366;SDS011;16877;48.810;9.282;2022-07-23T09:39:02;6.67;;;6.03;;
1366;SDS011;16877;48.810;9.282;2022-07-23T09:41:33;6.20;;;5.60;;
1366;SDS011;16877;48.810;9.282;2022-07-23T09:44:15;5.83;;;5.43;;
1366;SDS011;16877;48.810;9.282;2022-07-23T09:46:43;7.20;;;6.60;;
1366;SDS011;16877;48.810;9.282;2022-07-23T09:49:12;5.80;;;5.30;;
1366;SDS011;16877;48.810;9.282;2022-07-23T09:51:44;6.70;;;6.10;;
1366;SDS011;16877;48.810;9.282;2022-07-23T09:54:20;6.93;;;6.33;;
1366;SDS011;16877;48.810;9.282;2022-07-23T09:56:49;6.83;;;6.23;;
1366;SDS011;16877;48.810;9.282;2022-07-23T09:59:16;6.33;;;5.73;;
1366;SDS011;16877;48.810;9.282;2022-07-23T10:01:44;7.13;;;6.43;;
1366;SDS011;16877;48.810;9.282;2022-07-23T10:04:11;6.37;;;5.50;;
1366;SDS011;16877;48.810;9.282;2022-07-23T10:06:39;5.57;;;5.07;;
1366;SDS011;16877;48.810;9.282;2022-07-23T10:09:07;6.53;;;5.90;;
1366;SDS011;16877;48.810;9.282;2022-07-23T10:11:37;6.10;;;5.60;;
1366;SDS011;16877;48.810;9.282;2022-07-23T10:14:06;6.50;;;5.90;;
1366;SDS011;16877;48.810;9.282;2022-07-23T10:16:33;9.30;;;6.43;;
1366;SDS011;16877;48.810;9.282;2022-07-23T10:19:00;5.93;;;5.43;;
1366;SDS011;16877;48.810;9.282;2022-07-23T10:21:30;6.43;;;5.83;;
1366;SDS011;16877;48.810;9.282;2022-07-23T10:24:07;6.43;;;5.83;;
1366;SDS011;16877;48.810;9.282;2022-07-23T10:26:47;5.70;;;5.20;;
1366;SDS011;16877;48.810;9.282;2022-07-23T10:29:23;6.60;;;6.00;;
1366;SDS011;16877;48.810;9.282;2022-07-23T10:32:04;7.00;;;6.40;;
1366;SDS011;16877;48.810;9.282;2022-07-23T10:34:44;6.70;;;6.10;;
1366;SDS011;16877;48.810;9.282;2022-07-23T10:37:21;9.53;;;6.80;;
1366;SDS011;16877;48.810;9.282;2022-07-23T10:42:42;8.03;;;5.70;;
1366;SDS011;16877;48.810;9.282;2022-07-23T10:45:22;7.20;;;5.40;;
1366;SDS011;16877;48.810;9.282;2022-07-23T10:47:53;6.20;;;5.70;;
1366;SDS011;16877;48.810;9.282;2022-07-23T10:50:21;6.50;;;5.90;;
1366;SDS011;16877;48.810;9.282;2022-07-23T10:53:08;5.53;;;5.03;;
1366;SDS011;16877;48.810;9.282;2022-07-23T10:55:42;6.27;;;5.67;;
1366;SDS011;16877;48.810;9.282;2022-07-23T10:58:12;6.83;;;6.30;;
1366;SDS011;16877;48.810;9.282;2022-07-23T11:00:45;7.00;;;6.50;;
1366;SDS011;16877;48.810;9.282;2022-07-23T11:03:27;6.87;;;6.27;;
1366;SDS011;16877;48.810;9.282;2022-07-23T11:06:01;6.20;;;5.70;;
1366;SDS011;16877;48.810;9.282;2022-07-23T11:08:27;6.73;;;6.13;;
1366;SDS011;16877;48.810;9.282;2022-07-23T11:11:07;6.57;;;6.07;;
1366;SDS011;16877;48.810;9.282;2022-07-23T11:13:36;6.47;;;5.93;;
1366;SDS011;16877;48.810;9.282;2022-07-23T11:16:06;6.03;;;5.43;;
1366;SDS011;16877;48.810;9.282;2022-07-23T11:18:54;5.90;;;5.40;;
1366;SDS011;16877;48.810;9.282;2022-07-23T11:21:49;6.80;;;6.20;;
1366;SDS011;16877;48.810;9.282;2022-07-23T11:24:17;6.57;;;5.90;;
1366;SDS011;16877;48.810;9.282;2022-07-23T11:26:48;7.60;;;5.97;;
1366;SDS011;16877;48.810;9.282;2022-07-23T11:32:23;6.50;;;6.00;;
1366;SDS011;16877;48.810;9.282;2022-07-23T11:34:53;6.47;;;5.87;;
1366;SDS011;16877;48.810;9.282;2022-07-23T11:37:28;7.30;;;6.70;;
1366;SDS011;16877;48.810;9.282;2022-07-23T11:39:58;7.27;;;6.57;;
1366;SDS011;16877;48.810;9.282;2022-07-23T11:42:26;7.30;;;6.70;;
1366;SDS011;16877;48.810;9.282;2022-07-23T11:44:53;6.83;;;6.13;;
1366;SDS011;16877;48.810;9.282;2022-07-23T11:47:21;7.60;;;7.00;;
1366;SDS011;16877;48.810;9.282;2022-07-23T11:49:52;6.30;;;5.80;;
1366;SDS011;16877;48.810;9.282;2022-07-23T11:52:19;7.60;;;6.90;;
1366;SDS011;16877;48.810;9.282;2022-07-23T11:54:47;6.53;;;5.93;;
1366;SDS011;16877;48.810;9.282;2022-07-23T11:57:15;7.10;;;6.50;;
1366;SDS011;16877;48.810;9.282;2022-07-23T11:59:45;6.27;;;5.77;;
1366;SDS011;16877;48.810;9.282;2022-07-23T12:02:13;7.80;;;5.50;;
1366;SDS011;16877;48.810;9.282;2022-07-23T12:04:40;6.63;;;6.03;;
1366;SDS011;16877;48.810;9.282;2022-07-23T12:07:22;7.20;;;6.30;;
1366;SDS011;16877;48.810;9.282;2022-07-23T12:09:50;7.37;;;6.67;;
1366;SDS011;16877;48.810;9.282;2022-07-23T12:12:17;6.30;;;5.70;;
1366;SDS011;16877;48.810;9.282;2022-07-23T12:14:49;7.27;;;6.57;;
1366;SDS011;16877;48.810;9.282;2022-07-23T12:17:16;7.13;;;6.53;;
1366;SDS011;16877;48.810;9.282;2022-07-23T12:19:44;7.93;;;7.33;;
1366;SDS011;16877;48.810;9.282;2022-07-23T12:22:11;6.30;;;5.80;;
1366;SDS011;16877;48.810;9.282;2022-07-23T12:24:55;7.63;;;7.03;;
1366;SDS011;16877;48.810;9.282;2022-07-23T12:27:23;7.33;;;6.73;;
1366;SDS011;16877;48.810;9.282;2022-07-23T12:29:52;6.93;;;6.33;;
1366;SDS011;16877;48.810;9.282;2022-07-23T12:32:20;6.87;;;6.33;;
1366;SDS011;16877;48.810;9.282;2022-07-23T12:34:49;7.47;;;6.73;;
1366;SDS011;16877;48.810;9.282;2022-07-23T12:40:18;6.70;;;6.10;;
1366;SDS011;16877;48.810;9.282;2022-07-23T12:42:47;7.40;;;6.80;;
1366;SDS011;16877;48.810;9.282;2022-07-23T12:45:16;8.93;;;6.87;;
1366;SDS011;16877;48.810;9.282;2022-07-23T12:47:53;7.90;;;7.20;;
1366;SDS011;16877;48.810;9.282;2022-07-23T12:50:42;7.30;;;6.60;;
1366;SDS011;16877;48.810;9.282;2022-07-23T12:53:14;7.00;;;6.40;;
1366;SDS011;16877;48.810;9.282;2022-07-23T12:55:42;6.80;;;6.30;;
1366;SDS011;16877;48.810;9.282;2022-07-23T12:58:12;6.97;;;6.27;;
1366;SDS011;16877;48.810;9.282;2022-07-23T13:00:56;6.50;;;6.00;;
1366;SDS011;16877;48.810;9.282;2022-07-23T13:03:28;7.60;;;6.80;;
1366;SDS011;16877;48.810;9.282;2022-07-23T13:05:58;7.87;;;7.17;;
1366;SDS011;16877;48.810;9.282;2022-07-23T13:08:27;7.70;;;7.10;;
1366;SDS011;16877;48.810;9.282;2022-07-23T13:10:55;6.90;;;6.30;;
1366;SDS011;16877;48.810;9.282;2022-07-23T13:13:22;6.37;;;5.83;;
1366;SDS011;16877;48.810;9.282;2022-07-23T13:15:50;8.23;;;6.90;;
1366;SDS011;16877;48.810;9.282;2022-07-23T13:18:19;7.43;;;6.77;;
1366;SDS011;16877;48.810;9.282;2022-07-23T13:20:46;7.73;;;7.03;;
1366;SDS011;16877;48.810;9.282;2022-07-23T13:23:14;7.90;;;7.10;;
1366;SDS011;16877;48.810;9.282;2022-07-23T13:25:42;7.00;;;6.40;;
1366;SDS011;16877;48.810;9.282;2022-07-23T13:28:09;7.30;;;6.60;;
1366;SDS011;16877;48.810;9.282;2022-07-23T13:30:36;8.17;;;7.47;;
1366;SDS011;16877;48.810;9.282;2022-07-23T13:33:03;8.03;;;7.40;;
1366;SDS011;16877;48.810;9.282;2022-07-23T13:35:32;8.53;;;7.70;;
1366;SDS011;16877;48.810;9.282;2022-07-23T13:37:59;8.30;;;7.17;;
1366;SDS011;16877;48.810;9.282;2022-07-23T13:40:26;7.10;;;6.50;;
1366;SDS011;16877;48.810;9.282;2022-07-23T13:42:53;7.60;;;6.90;;
1366;SDS011;16877;48.810;9.282;2022-07-23T13:45:20;7.67;;;7.07;;
1366;SDS011;16877;48.810;9.282;2022-07-23T13:47:47;7.20;;;6.53;;
1366;SDS011;16877;48.810;9.282;2022-07-23T13:50:14;8.67;;;7.87;;
1366;SDS011;16877;48.810;9.282;2022-07-23T13:52:43;7.13;;;6.53;;
1366;SDS011;16877;48.810;9.282;2022-07-23T13:55:10;7.80;;;7.03;;
1366;SDS011;16877;48.810;9.282;2022-07-23T13:57:37;7.40;;;6.80;;
1366;SDS011;16877;48.810;9.282;2022-07-23T14:00:04;8.00;;;7.40;;
1366;SDS011;16877;48.810;9.282;2022-07-23T14:02:33;8.03;;;7.37;;
1366;SDS011;16877;48.810;9.282;2022-07-23T14:05:00;8.50;;;7.70;;
1366;SDS011;16877;48.810;9.282;2022-07-23T14:07:27;7.47;;;6.67;;
1366;SDS011;16877;48.810;9.282;2022-07-23T14:09:55;7.90;;;7.20;;
1366;SDS011;16877;48.810;9.282;2022-07-23T14:12:22;8.60;;;7.80;;
1366;SDS011;16877;48.810;9.282;2022-07-23T14:14:49;8.83;;;8.20;;
1366;SDS011;16877;48.810;9.282;2022-07-23T14:17:15;8.97;;;8.20;;
1366;SDS011;16877;48.810;9.282;2022-07-23T14:19:42;8.80;;;8.03;;
1366;SDS011;16877;48.810;9.282;2022-07-23T14:22:09;7.83;;;7.13;;
1366;SDS011;16877;48.810;9.282;2022-07-23T14:24:36;10.03;;;8.40;;
1366;SDS011;16877;48.810;9.282;2022-07-23T14:27:04;7.50;;;6.80;;
1366;SDS011;16877;48.810;9.282;2022-07-23T14:29:31;8.63;;;7.83;;
1366;SDS011;16877;48.810;9.282;2022-07-23T14:31:59;8.33;;;7.60;;
1366;SDS011;16877;48.810;9.282;2022-07-23T14:34:25;8.80;;;8.10;;
1366;SDS011;16877;48.810;9.282;2022-07-23T14:36:52;9.60;;;7.40;;
1366;SDS011;16877;48.810;9.282;2022-07-23T14:39:19;7.63;;;7.03;;
1366;SDS011;16877;48.810;9.282;2022-07-23T14:41:46;8.30;;;7.50;;
1366;SDS011;16877;48.810;9.282;2022-07-23T14:44:14;7.90;;;7.20;;
1366;SDS011;16877;48.810;9.282;2022-07-23T14:46:41;9.10;;;8.20;;
1366;SDS011;16877;48.810;9.282;2022-07-23T14:49:07;8.03;;;7.30;;
1366;SDS011;16877;48.810;9.282;2022-07-23T14:51:34;8.17;;;7.47;;
1366;SDS011;16877;48.810;9.282;2022-07-23T14:54:01;8.37;;;7.70;;
1366;SDS011;16877;48.810;9.282;2022-07-23T14:56:28;8.53;;;7.83;;
1366;SDS011;16877;48.810;9.282;2022-07-23T14:58:55;7.90;;;7.10;;
1366;SDS011;16877;48.810;9.282;2022-07-23T15:01:23;8.20;;;7.50;;
1366;SDS011;16877;48.810;9.282;2022-07-23T15:03:49;8.33;;;7.63;;
1366;SDS011;16877;48.810;9.282;2022-07-23T15:06:16;8.40;;;7.67;;
1366;SDS011;16877;48.810;9.282;2022-07-23T15:08:43;8.03;;;7.33;;
1366;SDS011;16877;48.810;9.282;2022-07-23T15:11:10;7.47;;;6.87;;
1366;SDS011;16877;48.810;9.282;2022-07-23T15:13:37;7.70;;;7.00;;
1366;SDS011;16877;48.810;9.282;2022-07-23T15:16:04;7.93;;;6.87;;